Aérodrome :
LOGIN :

S'inscrire | Disclaimer

   EN    FR    IT 

 










Légende :    VFR   VFR Marginal   IFR   IFR Intensif   IFR Très Intensif
Visi : 
Plafond : 
>= 8 km
>= 3000ft
5 à 8 km
1000 à 3000 ft
1500m à 5 km
500 à 1000 ft
800 à 1500m
200 à 500 ft
< 800m
< 200 ft
Symboles :   Orages  Brouillard  Fortes neiges  Fortes précipitations  Vent > 20 kt
SIGMETs :   Divers  Orages  Givrage  Turbulence  Onde Orograph.  Cendres Volcan.






- Altitude de l'aérodrome : 22 ft
- Code IATA : TUN


DTTA - Tunis Carthage

DERNIER METAR :
  • 261230Z 12008KT 070V160 9999 FEW023TCU 21/08 Q1018

METARs EXPIRÉS :
  • 261200Z 12009KT 060V160 9999 FEW023TCU 22/08 Q1018
  • 261130Z 13008KT 080V170 9999 FEW023TCU 21/10 Q1019
  • 261100Z 12007KT 060V180 9999 FEW023TCU 20/11 Q1019
  • 261030Z 13006KT 100V180 9999 FEW023TCU 20/11 Q1020
  • 261000Z 10004KT 040V160 9999 FEW023 18/13 Q1020

TAF TAF DTTA
Valide du 26 à 12h jusqu'au 27 à 12h UTC


261100Z 2612/2712 10005KT 9999 FEW023
BECMG 2612/2614 16011KT
BECMG 2618/2620 VRB03KT
PROB40 2623/2703 3000 BR FEW014
PROB40 2703/2708 0800 FG
BECMG 2710/2712 13010KT



MET'MAP, la Météo Aéronautique d'un coup d'oeil ! - Copyright ORBIFLY Décembre 2007 - Disclaimer

ORBIFLY MET'MAP TEAM :

Programmation & Développement : Alexandra Zaïnal
Sur une idée originale de : Baudouin d'Aumeries
Assistance à la programmation : Marc-Olivier Méhu
Soutien technique & logistique : Manuel Goepfert

Contact : metmap@orbifly.com




SOURCES & CREDITS :

   NOAA